createdAt,value
2022-12-19T00:04:00.738Z,11.50
2022-12-19T00:09:32.215Z,9.88
2022-12-19T00:15:06.358Z,11.00
2022-12-19T00:20:37.382Z,11.00
2022-12-19T00:26:14.491Z,10.50
2022-12-19T00:31:45.884Z,10.43
2022-12-19T00:37:18.886Z,11.47
2022-12-19T00:42:53.520Z,10.98
2022-12-19T00:48:25.124Z,11.13
2022-12-19T00:53:57.893Z,10.73
2022-12-19T00:59:29.643Z,10.37
2022-12-19T01:05:00.711Z,12.48
2022-12-19T01:10:31.941Z,10.98
2022-12-19T01:16:05.265Z,11.05
2022-12-19T01:21:37.485Z,11.43
2022-12-19T01:27:08.753Z,10.88
2022-12-19T01:32:39.778Z,10.45
2022-12-19T01:38:19.286Z,10.65
2022-12-19T01:43:59.170Z,10.52
2022-12-19T01:49:34.502Z,10.55
2022-12-19T01:55:07.114Z,11.15
2022-12-19T02:00:38.638Z,11.95
2022-12-19T02:06:13.908Z,10.40
2022-12-19T02:11:48.681Z,11.05
2022-12-19T02:17:52.656Z,10.30
2022-12-19T02:23:33.825Z,11.45
2022-12-19T02:29:20.247Z,11.65
2022-12-19T02:35:24.834Z,11.10
2022-12-19T02:41:00.212Z,11.23
2022-12-19T02:46:33.596Z,11.18
2022-12-19T02:52:14.011Z,10.23
2022-12-19T02:58:06.176Z,11.32
2022-12-19T03:03:59.058Z,11.10
2022-12-19T03:09:56.566Z,11.07
2022-12-19T03:15:28.032Z,12.77
2022-12-19T03:21:21.302Z,12.35
2022-12-19T03:27:09.847Z,13.15
2022-12-19T03:32:43.984Z,13.10
2022-12-19T03:38:15.915Z,12.77
2022-12-19T03:43:47.115Z,13.65
2022-12-19T03:49:18.178Z,14.02
2022-12-19T03:54:59.624Z,13.30
2022-12-19T04:00:31.926Z,14.93
2022-12-19T04:06:04.382Z,13.13
2022-12-19T04:11:39.655Z,13.45
2022-12-19T04:17:27.483Z,13.30
2022-12-19T04:23:37.599Z,13.40
2022-12-19T04:29:09.227Z,13.45
2022-12-19T04:34:42.972Z,13.45
2022-12-19T04:40:14.953Z,14.55
2022-12-19T04:45:46.181Z,13.77
2022-12-19T04:51:17.869Z,13.32
2022-12-19T04:56:48.915Z,13.30
2022-12-19T05:02:20.216Z,12.60
2022-12-19T05:07:52.134Z,12.82
2022-12-19T05:13:23.446Z,12.77
2022-12-19T05:18:54.836Z,13.15
2022-12-19T05:24:25.824Z,13.20
2022-12-19T05:29:57.063Z,13.15
2022-12-19T05:35:28.392Z,13.60
2022-12-19T05:40:59.910Z,14.43
2022-12-19T05:46:31.250Z,14.80
2022-12-19T05:52:02.733Z,13.15
2022-12-19T05:57:34.349Z,14.32
2022-12-19T06:03:05.611Z,14.63
2022-12-19T06:08:36.924Z,13.07
2022-12-19T06:14:08.207Z,14.63
2022-12-19T06:19:39.596Z,13.05
2022-12-19T06:25:10.743Z,13.20
2022-12-19T06:30:44.983Z,13.57
2022-12-19T06:36:19.143Z,14.25
2022-12-19T06:42:09.278Z,13.48
2022-12-19T06:47:40.452Z,13.38
2022-12-19T06:53:11.733Z,13.25
2022-12-19T06:58:44.531Z,13.40
2022-12-19T07:04:19.562Z,14.60
2022-12-19T07:09:50.579Z,13.60
2022-12-19T07:15:22.250Z,12.88
2022-12-19T07:20:53.350Z,13.73
2022-12-19T07:26:24.598Z,14.48
2022-12-19T07:31:55.564Z,13.65
2022-12-19T07:37:26.554Z,13.93
2022-12-19T07:43:01.611Z,14.10
2022-12-19T07:48:32.966Z,15.68
2022-12-19T07:54:04.497Z,14.40
2022-12-19T07:59:38.935Z,15.02
2022-12-19T08:05:11.663Z,13.95
2022-12-19T08:10:43.510Z,14.30
2022-12-19T08:16:15.285Z,14.60
2022-12-19T08:21:46.762Z,13.50
2022-12-19T08:27:18.133Z,14.00
2022-12-19T08:32:49.521Z,14.95
2022-12-19T08:38:20.420Z,14.90
2022-12-19T08:43:53.445Z,13.95
2022-12-19T08:49:24.557Z,14.73
2022-12-19T08:54:55.918Z,14.48
2022-12-19T09:00:32.816Z,14.18
2022-12-19T09:06:12.047Z,13.85
2022-12-19T09:11:49.812Z,14.90
2022-12-19T09:17:21.172Z,14.73
2022-12-19T09:22:52.439Z,16.25
2022-12-19T09:28:27.905Z,14.65
2022-12-19T09:33:59.984Z,14.10
2022-12-19T09:39:31.384Z,15.15
2022-12-19T09:45:14.632Z,13.93
2022-12-19T09:51:09.435Z,14.98
2022-12-19T09:56:46.007Z,14.93
2022-12-19T10:02:31.791Z,15.63
2022-12-19T10:08:09.018Z,14.73
2022-12-19T10:13:49.452Z,13.98
2022-12-19T10:19:23.995Z,14.93
2022-12-19T10:25:16.312Z,15.10
2022-12-19T10:31:02.649Z,14.88
2022-12-19T10:37:27.245Z,15.10
2022-12-19T10:43:09.416Z,15.32
2022-12-19T10:48:42.614Z,15.40
2022-12-19T10:54:13.984Z,15.43
2022-12-19T11:00:21.874Z,15.07
2022-12-19T11:05:58.679Z,15.25
2022-12-19T11:14:35.302Z,14.25
2022-12-19T11:29:17.148Z,16.42
2022-12-19T11:30:08.860Z,14.87
2022-12-19T11:35:58.656Z,14.88
2022-12-19T11:41:39.320Z,15.23
2022-12-19T11:47:56.881Z,15.45
2022-12-19T11:53:35.187Z,15.13
2022-12-19T11:59:13.660Z,15.18
2022-12-19T12:05:02.635Z,15.27
2022-12-19T12:13:32.018Z,14.65
2022-12-19T12:27:37.346Z,14.35
2022-12-19T12:31:18.627Z,14.20
2022-12-19T12:32:05.397Z,15.13
2022-12-19T12:41:18.148Z,13.15
2022-12-19T12:46:50.530Z,13.43
2022-12-19T12:52:34.704Z,14.20
2022-12-19T12:58:10.634Z,14.18
2022-12-19T13:03:54.952Z,13.27
2022-12-19T13:09:30.988Z,14.88
2022-12-19T13:15:34.699Z,14.73
2022-12-19T13:21:08.534Z,15.25
2022-12-19T13:26:50.238Z,13.32
2022-12-19T13:32:22.687Z,14.68
2022-12-19T13:39:49.873Z,13.23
2022-12-19T13:44:06.332Z,14.40
2022-12-19T13:49:37.313Z,13.60
2022-12-19T13:55:14.833Z,14.27
2022-12-19T14:00:51.941Z,15.07
2022-12-19T14:06:30.279Z,15.10
2022-12-19T14:13:48.401Z,14.93
2022-12-19T14:17:55.103Z,13.82
2022-12-19T14:23:42.596Z,13.68
2022-12-19T14:29:45.466Z,13.85
2022-12-19T14:36:10.321Z,13.60
2022-12-19T14:41:47.277Z,12.85
2022-12-19T14:52:34.429Z,13.25
2022-12-19T14:54:46.832Z,13.18
2022-12-19T14:59:35.396Z,13.20
2022-12-19T15:05:11.186Z,13.63
2022-12-19T15:11:06.147Z,13.70
2022-12-19T15:16:35.148Z,12.80
2022-12-19T15:22:06.548Z,14.27
2022-12-19T15:27:37.738Z,14.35
2022-12-19T15:33:14.196Z,13.07
2022-12-19T15:38:45.994Z,13.55
2022-12-19T15:44:52.732Z,12.85
2022-12-19T15:50:26.205Z,13.45
2022-12-19T15:55:58.810Z,14.15
2022-12-19T16:01:32.491Z,12.90
2022-12-19T16:07:13.416Z,13.73
2022-12-19T16:12:51.153Z,14.07
2022-12-19T16:18:22.488Z,13.93
2022-12-19T16:23:54.829Z,13.57
2022-12-19T16:29:28.116Z,14.10
2022-12-19T16:34:59.496Z,13.20
2022-12-19T16:40:30.647Z,12.73
2022-12-19T16:46:05.913Z,14.40
2022-12-19T16:51:37.071Z,13.43
2022-12-19T16:57:19.132Z,14.38
2022-12-19T17:02:53.071Z,13.05
2022-12-19T17:08:25.137Z,13.63
2022-12-19T17:14:01.851Z,14.02
2022-12-19T17:19:37.369Z,12.88
2022-12-19T17:25:29.047Z,12.75
2022-12-19T17:31:03.891Z,13.25
2022-12-19T17:36:37.797Z,12.50
2022-12-19T17:42:23.987Z,13.52
2022-12-19T17:48:02.012Z,13.15
2022-12-19T17:53:33.817Z,12.43
2022-12-19T17:59:05.077Z,12.40
2022-12-19T18:04:36.090Z,13.38
2022-12-19T18:10:18.513Z,12.88
2022-12-19T18:15:50.475Z,13.40
2022-12-19T18:21:24.865Z,12.40
2022-12-19T18:26:56.147Z,12.18
2022-12-19T18:32:27.056Z,13.48
2022-12-19T18:38:01.099Z,13.50
2022-12-19T18:43:32.914Z,13.38
2022-12-19T18:49:04.761Z,13.15
2022-12-19T18:54:35.764Z,12.60
2022-12-19T19:00:09.071Z,12.52
2022-12-19T19:05:40.629Z,12.43
2022-12-19T19:11:12.201Z,12.82
2022-12-19T19:16:43.734Z,12.70
2022-12-19T19:22:15.063Z,12.98
2022-12-19T19:27:46.258Z,11.98
2022-12-19T19:33:20.829Z,13.35
2022-12-19T19:38:53.709Z,13.73
2022-12-19T19:44:25.136Z,13.07
2022-12-19T19:49:56.490Z,12.63
2022-12-19T19:55:28.329Z,12.60
2022-12-19T20:00:59.817Z,12.82
2022-12-19T20:06:31.531Z,12.82
2022-12-19T20:12:02.665Z,12.90
2022-12-19T20:17:34.347Z,12.63
2022-12-19T20:23:06.317Z,12.32
2022-12-19T20:28:41.109Z,13.05
2022-12-19T20:34:20.274Z,12.75
2022-12-19T20:39:53.037Z,12.82
2022-12-19T20:45:24.403Z,12.00
2022-12-19T20:51:00.018Z,11.60
2022-12-19T20:56:31.663Z,12.32
2022-12-19T21:02:03.060Z,13.40
2022-12-19T21:07:34.855Z,13.35
2022-12-19T21:13:05.805Z,12.38
2022-12-19T21:18:39.778Z,13.00
2022-12-19T21:24:10.796Z,65.90
2022-12-19T21:29:41.749Z,79.40
2022-12-19T21:35:12.773Z,49.10
2022-12-19T21:40:43.812Z,41.90
2022-12-19T21:46:16.364Z,41.80
2022-12-19T21:51:47.628Z,45.50
2022-12-19T21:57:18.745Z,43.08
2022-12-19T22:03:12.493Z,40.83
2022-12-19T22:08:41.275Z,39.13
2022-12-19T22:14:13.958Z,39.83
2022-12-19T22:19:45.344Z,36.47
2022-12-19T22:25:16.716Z,36.08
2022-12-19T22:30:47.846Z,35.00
2022-12-19T22:36:25.938Z,33.65
2022-12-19T22:41:59.349Z,32.33
2022-12-19T22:47:30.446Z,31.83
2022-12-19T22:53:01.752Z,30.45
2022-12-19T22:58:35.807Z,29.90
2022-12-19T23:09:39.257Z,27.38
2022-12-19T23:15:10.639Z,27.50
2022-12-19T23:20:42.352Z,26.20
2022-12-19T23:26:16.330Z,24.92
2022-12-19T23:31:47.884Z,24.13
2022-12-19T23:37:18.988Z,24.75
2022-12-19T23:42:49.967Z,24.90
2022-12-19T23:48:28.774Z,24.20
2022-12-19T23:53:59.764Z,22.95
2022-12-19T23:59:31.333Z,22.55
